createdAt,value
2018-10-12T00:00:33.997Z,102019.08
2018-10-12T00:03:37.523Z,102019.28
2018-10-12T00:06:41.295Z,102019.01
2018-10-12T00:09:44.741Z,102016.45
2018-10-12T00:12:49.369Z,102029.45
2018-10-12T00:15:52.874Z,102030.13
2018-10-12T00:18:56.369Z,102034.52
2018-10-12T00:21:59.946Z,102048.33
2018-10-12T00:25:03.399Z,102052.14
2018-10-12T00:28:07.214Z,102058.13
2018-10-12T00:31:10.817Z,102060.35
2018-10-12T00:34:14.263Z,102069.94
2018-10-12T00:37:17.804Z,102060.70
2018-10-12T00:40:21.341Z,102061.02
2018-10-12T00:43:24.787Z,102068.04
2018-10-12T00:46:28.314Z,102065.85
2018-10-12T00:49:33.010Z,102060.39
2018-10-12T00:52:36.422Z,102065.26
2018-10-12T00:55:39.964Z,102063.55
2018-10-12T00:58:43.514Z,102070.40
2018-10-12T01:01:46.928Z,102061.73
2018-10-12T01:04:50.483Z,102058.31
2018-10-12T01:07:54.020Z,102059.31
2018-10-12T01:10:57.525Z,102060.03
2018-10-12T01:14:01.042Z,102057.80
2018-10-12T01:17:04.559Z,102067.71
2018-10-12T01:20:08.701Z,102061.97
2018-10-12T01:23:12.251Z,102065.33
2018-10-12T01:26:15.862Z,102064.10
2018-10-12T01:29:19.303Z,102069.02
2018-10-12T01:32:28.407Z,102075.48
2018-10-12T01:35:32.054Z,102080.71
2018-10-12T01:38:35.550Z,102082.45
2018-10-12T01:41:39.118Z,102082.29
2018-10-12T01:44:42.661Z,102074.29
2018-10-12T01:47:46.210Z,102075.36
2018-10-12T01:50:49.597Z,102083.23
2018-10-12T01:53:53.044Z,102095.99
2018-10-12T01:56:56.583Z,102095.75
2018-10-12T02:00:00.137Z,102095.93
2018-10-12T02:03:03.742Z,102091.66
2018-10-12T02:06:07.234Z,102087.33
2018-10-12T02:09:10.635Z,102088.08
2018-10-12T02:12:14.167Z,102106.04
2018-10-12T02:15:17.752Z,102103.50
2018-10-12T02:18:21.358Z,102112.87
2018-10-12T02:21:24.829Z,102124.30
2018-10-12T02:24:28.295Z,102124.41
2018-10-12T02:27:31.795Z,102125.96
2018-10-12T02:30:35.263Z,102127.28
2018-10-12T02:33:38.662Z,102124.95
2018-10-12T02:36:42.076Z,102130.65
2018-10-12T02:39:45.617Z,102140.23
2018-10-12T02:42:49.056Z,102144.36
2018-10-12T02:45:52.542Z,102156.96
2018-10-12T02:48:55.961Z,102169.73
2018-10-12T02:51:59.435Z,102168.46
2018-10-12T02:55:02.898Z,102166.38
2018-10-12T02:58:06.738Z,102173.95
2018-10-12T03:01:10.218Z,102169.97
2018-10-12T03:04:13.793Z,102162.59
2018-10-12T03:07:17.260Z,102168.47
2018-10-12T03:10:20.731Z,102167.96
2018-10-12T03:13:24.188Z,102182.02
2018-10-12T03:16:27.663Z,102183.88
2018-10-12T03:19:31.221Z,102190.84
2018-10-12T03:22:34.566Z,102184.50
2018-10-12T03:25:38.145Z,102186.30
2018-10-12T03:28:41.753Z,102189.91
2018-10-12T03:31:45.581Z,102194.05
2018-10-12T03:34:49.223Z,102202.44
2018-10-12T03:37:53.076Z,102204.03
2018-10-12T03:40:56.778Z,102203.29
2018-10-12T03:44:00.423Z,102201.17
2018-10-12T03:47:04.017Z,102195.88
2018-10-12T03:50:07.655Z,102197.75
2018-10-12T03:53:19.593Z,102199.19
2018-10-12T03:56:23.177Z,102197.81
2018-10-12T03:59:26.699Z,102200.36
2018-10-12T04:02:30.243Z,102205.20
2018-10-12T04:05:44.215Z,102209.18
2018-10-12T04:08:47.758Z,102220.42
2018-10-12T04:11:51.362Z,102229.58
2018-10-12T04:14:54.954Z,102230.20
2018-10-12T04:18:00.714Z,102237.89
2018-10-12T04:21:04.309Z,102241.01
2018-10-12T04:24:08.956Z,102249.25
2018-10-12T04:27:12.563Z,102256.07
2018-10-12T04:30:16.113Z,102263.40
2018-10-12T04:33:19.945Z,102267.99
2018-10-12T04:36:23.469Z,102275.98
2018-10-12T04:39:42.145Z,102277.67
2018-10-12T04:42:45.801Z,102274.06
2018-10-12T04:45:49.442Z,102283.38
2018-10-12T04:48:54.151Z,102285.71
2018-10-12T04:51:59.184Z,102286.55
2018-10-12T04:55:02.813Z,102291.14
2018-10-12T04:58:06.547Z,102291.32
2018-10-12T05:01:10.696Z,102291.73
2018-10-12T05:04:14.211Z,102303.74
2018-10-12T05:07:17.871Z,102311.69
2018-10-12T05:10:21.525Z,102310.41
2018-10-12T05:13:25.175Z,102314.81
2018-10-12T05:16:28.672Z,102319.99
2018-10-12T05:19:32.216Z,102333.60
2018-10-12T05:22:36.779Z,102338.57
2018-10-12T05:25:40.410Z,102336.96
2018-10-12T05:28:43.918Z,102346.19
2018-10-12T05:31:47.483Z,102349.18
2018-10-12T05:34:53.387Z,102344.51
2018-10-12T05:37:56.939Z,102341.56
2018-10-12T05:41:00.875Z,102342.15
2018-10-12T05:44:04.849Z,102338.52
2018-10-12T05:47:08.413Z,102345.60
2018-10-12T05:50:12.705Z,102352.99
2018-10-12T05:53:17.440Z,102365.10
2018-10-12T05:56:26.278Z,102374.25
2018-10-12T05:59:29.860Z,102368.02
2018-10-12T06:02:33.418Z,102376.28
2018-10-12T06:05:37.026Z,102369.73
2018-10-12T06:08:41.551Z,102376.52
2018-10-12T06:11:45.149Z,102374.88
2018-10-12T06:14:48.713Z,102371.23
2018-10-12T06:17:52.251Z,102380.03
2018-10-12T06:20:55.813Z,102378.51
2018-10-12T06:23:59.352Z,102376.96
2018-10-12T06:27:02.866Z,102390.36
2018-10-12T06:30:06.399Z,102393.83
2018-10-12T06:33:09.986Z,102400.41
2018-10-12T06:36:14.540Z,102407.88
2018-10-12T06:39:18.105Z,102411.54
2018-10-12T06:42:22.630Z,102411.40
2018-10-12T06:45:30.783Z,102420.70
2018-10-12T06:48:36.294Z,102435.01
2018-10-12T06:51:39.846Z,102442.99
2018-10-12T06:54:43.620Z,102436.37
2018-10-12T06:57:47.276Z,102443.58
2018-10-12T07:00:50.870Z,102456.13
2018-10-12T07:03:54.449Z,102456.77
2018-10-12T07:06:58.094Z,102454.06
2018-10-12T07:10:01.908Z,102464.42
2018-10-12T07:13:05.567Z,102476.96
2018-10-12T07:16:09.489Z,102479.63
2018-10-12T07:19:14.990Z,102476.31
2018-10-12T07:22:18.575Z,102473.80
2018-10-12T07:25:24.123Z,102471.25
2018-10-12T07:28:27.588Z,102468.99
2018-10-12T07:31:31.204Z,102466.30
2018-10-12T07:34:34.793Z,102476.48
2018-10-12T07:37:39.363Z,102477.70
2018-10-12T07:40:42.917Z,102478.44
2018-10-12T07:43:46.419Z,102476.50
2018-10-12T07:46:50.030Z,102481.15
2018-10-12T07:49:53.693Z,102471.03
2018-10-12T07:52:57.383Z,102476.63
2018-10-12T07:56:00.991Z,102479.84
2018-10-12T07:59:04.855Z,102477.74
2018-10-12T08:02:09.519Z,102478.59
2018-10-12T08:05:13.138Z,102490.26
2018-10-12T08:08:16.699Z,102495.49
2018-10-12T08:11:20.256Z,102480.58
2018-10-12T08:14:23.803Z,102475.66
2018-10-12T08:17:27.341Z,102483.77
2018-10-12T08:20:31.031Z,102493.17
2018-10-12T08:23:34.578Z,102490.10
2018-10-12T08:26:38.129Z,102485.58
2018-10-12T08:29:41.590Z,102494.28
2018-10-12T08:32:45.128Z,102489.07
2018-10-12T08:35:48.559Z,102496.89
2018-10-12T08:38:52.189Z,102494.98
2018-10-12T08:41:55.783Z,102493.62
2018-10-12T08:44:59.235Z,102493.26
2018-10-12T08:48:06.732Z,102495.04
2018-10-12T08:51:10.299Z,102497.07
2018-10-12T08:54:14.097Z,102499.28
2018-10-12T08:57:17.855Z,102489.03
2018-10-12T09:00:21.590Z,102495.47
2018-10-12T09:03:25.139Z,102494.77
2018-10-12T09:06:28.867Z,102488.53
2018-10-12T09:09:32.344Z,102484.87
2018-10-12T09:12:36.277Z,102481.91
2018-10-12T09:15:39.770Z,102484.52
2018-10-12T09:18:43.324Z,102488.59
2018-10-12T09:21:46.985Z,102485.79
2018-10-12T09:24:50.457Z,102483.21
2018-10-12T09:27:54.087Z,102479.18
2018-10-12T09:30:57.572Z,102475.86
2018-10-12T09:34:01.138Z,102481.42
2018-10-12T09:37:04.605Z,102484.77
2018-10-12T09:40:08.147Z,102482.90
2018-10-12T09:43:11.699Z,102483.30
2018-10-12T09:46:15.457Z,102475.22
2018-10-12T09:49:18.887Z,102481.24
2018-10-12T09:52:22.365Z,102473.93
2018-10-12T09:55:26.183Z,102479.49
2018-10-12T09:58:29.703Z,102476.57
2018-10-12T10:01:38.478Z,102471.23
2018-10-12T10:04:42.104Z,102471.89
2018-10-12T10:07:45.555Z,102470.53
2018-10-12T10:10:48.945Z,102467.42
2018-10-12T10:13:53.038Z,102464.94
2018-10-12T10:16:56.504Z,102468.42
2018-10-12T10:20:00.454Z,102464.93
2018-10-12T10:23:04.028Z,102455.23
2018-10-12T10:26:07.844Z,102455.17
2018-10-12T10:29:11.381Z,102459.23
2018-10-12T10:32:20.512Z,102451.27
2018-10-12T10:35:24.103Z,102450.64
2018-10-12T10:38:27.559Z,102457.09
2018-10-12T10:41:31.053Z,102447.23
2018-10-12T10:44:34.401Z,102446.50
2018-10-12T10:47:37.854Z,102440.85
2018-10-12T10:50:41.303Z,102442.19
2018-10-12T10:53:44.782Z,102432.51
2018-10-12T10:56:48.221Z,102436.95
2018-10-12T10:59:51.815Z,102438.22
2018-10-12T11:02:55.446Z,102426.32
2018-10-12T11:05:59.144Z,102426.00
2018-10-12T11:09:03.049Z,102425.79
2018-10-12T11:12:06.658Z,102433.48
2018-10-12T11:15:10.132Z,102429.77
2018-10-12T11:18:13.603Z,102422.87
2018-10-12T11:21:17.081Z,102423.12
2018-10-12T11:24:20.642Z,102419.10
2018-10-12T11:27:24.130Z,102415.49
2018-10-12T11:30:27.562Z,102416.60
2018-10-12T11:33:31.037Z,102414.83
2018-10-12T11:36:34.481Z,102413.13
2018-10-12T11:39:38.012Z,102411.19
2018-10-12T11:42:52.755Z,102403.68
2018-10-12T11:45:56.456Z,102402.26
2018-10-12T11:48:59.954Z,102402.03
2018-10-12T11:52:03.412Z,102390.23
2018-10-12T11:55:07.413Z,102380.28
2018-10-12T11:58:10.962Z,102377.04
2018-10-12T12:01:14.351Z,102373.42
2018-10-12T12:04:18.078Z,102373.39
2018-10-12T12:07:21.685Z,102372.47
2018-10-12T12:10:25.068Z,102371.78
2018-10-12T12:13:28.569Z,102364.61
2018-10-12T12:16:32.132Z,102364.88
2018-10-12T12:19:35.571Z,102352.64
2018-10-12T12:22:39.009Z,102354.17
2018-10-12T12:25:42.854Z,102350.84
2018-10-12T12:28:46.309Z,102349.52
2018-10-12T12:31:49.708Z,102345.87
2018-10-12T12:34:54.208Z,102350.75
2018-10-12T12:37:57.513Z,102351.33
2018-10-12T12:41:00.913Z,102347.23
2018-10-12T12:44:04.489Z,102342.11
2018-10-12T12:47:08.094Z,102342.98
2018-10-12T12:50:12.629Z,102343.92
2018-10-12T12:53:16.253Z,102342.94
2018-10-12T12:56:19.841Z,102336.46
2018-10-12T12:59:23.312Z,102346.46
2018-10-12T13:02:26.948Z,102342.13
2018-10-12T13:05:30.509Z,102343.93
2018-10-12T13:08:34.983Z,102349.13
2018-10-12T13:11:38.678Z,102345.44
2018-10-12T13:14:42.185Z,102341.67
2018-10-12T13:17:45.774Z,102349.10
2018-10-12T13:20:49.387Z,102351.03
2018-10-12T13:23:53.035Z,102350.49
2018-10-12T13:26:56.621Z,102355.65
2018-10-12T13:30:00.337Z,102354.16
2018-10-12T13:33:04.090Z,102348.01
2018-10-12T13:36:08.678Z,102347.69
2018-10-12T13:39:13.218Z,102347.27
2018-10-12T13:42:16.770Z,102346.39
2018-10-12T13:45:20.337Z,102344.72
2018-10-12T13:48:29.229Z,102345.08
2018-10-12T13:51:34.115Z,102346.51
2018-10-12T13:54:37.814Z,102341.58
2018-10-12T13:57:41.428Z,102342.55
2018-10-12T14:00:44.917Z,102340.61
2018-10-12T14:03:48.425Z,102343.39
2018-10-12T14:06:52.306Z,102345.50
2018-10-12T14:09:55.943Z,102342.42
2018-10-12T14:13:01.667Z,102340.30
2018-10-12T14:16:06.511Z,102336.92
2018-10-12T14:19:10.305Z,102339.52
2018-10-12T14:22:13.619Z,102338.08
2018-10-12T14:25:17.183Z,102340.43
2018-10-12T14:28:20.781Z,102340.06
2018-10-12T14:31:24.755Z,102337.82
2018-10-12T14:34:28.269Z,102337.25
2018-10-12T14:37:31.788Z,102334.40
2018-10-12T14:40:35.309Z,102336.29
2018-10-12T14:43:39.816Z,102342.17
2018-10-12T14:46:43.442Z,102348.11
2018-10-12T14:49:47.017Z,102342.09
2018-10-12T14:52:50.544Z,102343.94
2018-10-12T14:55:54.081Z,102341.96
2018-10-12T14:58:57.707Z,102337.17
2018-10-12T15:02:01.230Z,102337.35
2018-10-12T15:05:05.756Z,102340.18
2018-10-12T15:08:09.295Z,102338.48
2018-10-12T15:11:12.873Z,102348.10
2018-10-12T15:14:16.495Z,102348.51
2018-10-12T15:17:20.294Z,102346.47
2018-10-12T15:20:24.216Z,102349.64
2018-10-12T15:23:27.814Z,102350.74
2018-10-12T15:26:31.364Z,102355.84
2018-10-12T15:29:34.892Z,102354.61
2018-10-12T15:32:38.361Z,102353.17
2018-10-12T15:35:41.911Z,102354.11
2018-10-12T15:38:45.572Z,102353.01
2018-10-12T15:41:49.062Z,102355.26
2018-10-12T15:44:52.614Z,102350.95
2018-10-12T15:47:56.025Z,102354.27
2018-10-12T15:51:00.036Z,102357.69
2018-10-12T15:54:03.560Z,102350.85
2018-10-12T15:57:07.335Z,102352.37
2018-10-12T16:00:10.937Z,102352.73
2018-10-12T16:03:14.585Z,102351.74
2018-10-12T16:06:18.696Z,102352.70
2018-10-12T16:09:22.480Z,102351.74
2018-10-12T16:12:25.987Z,102348.08
2018-10-12T16:15:29.520Z,102351.53
2018-10-12T16:18:33.057Z,102348.68
2018-10-12T16:21:36.514Z,102348.86
2018-10-12T16:25:51.611Z,102349.08
2018-10-12T16:28:55.590Z,102348.89
2018-10-12T16:31:59.052Z,102354.35
2018-10-12T16:35:02.584Z,102359.26
2018-10-12T16:38:06.220Z,102360.73
2018-10-12T16:41:09.630Z,102360.86
2018-10-12T16:44:13.430Z,102364.80
2018-10-12T16:47:16.855Z,102367.73
2018-10-12T16:50:20.378Z,102368.77
2018-10-12T16:53:23.857Z,102372.63
2018-10-12T16:56:27.675Z,102378.99
2018-10-12T16:59:31.232Z,102383.05
2018-10-12T17:02:34.684Z,102385.86
2018-10-12T17:05:38.215Z,102389.33
2018-10-12T17:08:41.673Z,102393.36
2018-10-12T17:11:45.210Z,102393.89
2018-10-12T17:14:48.694Z,102395.23
2018-10-12T17:17:52.162Z,102400.30
2018-10-12T17:20:55.618Z,102395.11
2018-10-12T17:23:59.133Z,102396.44
2018-10-12T17:27:02.607Z,102397.10
2018-10-12T17:30:06.390Z,102404.85
2018-10-12T17:33:09.904Z,102412.87
2018-10-12T17:36:13.405Z,102419.35
2018-10-12T17:39:17.019Z,102414.23
2018-10-12T17:42:20.554Z,102419.67
2018-10-12T17:45:24.164Z,102425.82
2018-10-12T17:48:27.620Z,102429.66
2018-10-12T17:51:31.377Z,102426.64
2018-10-12T17:54:34.935Z,102429.10
2018-10-12T17:57:38.413Z,102426.84
2018-10-12T18:00:41.867Z,102426.86
2018-10-12T18:03:45.324Z,102430.58
2018-10-12T18:06:48.697Z,102437.01
2018-10-12T18:09:52.150Z,102440.03
2018-10-12T18:12:55.670Z,102442.02
2018-10-12T18:15:59.104Z,102451.50
2018-10-12T18:19:02.590Z,102456.57
2018-10-12T18:22:06.041Z,102457.16
2018-10-12T18:25:09.654Z,102457.46
2018-10-12T18:28:13.142Z,102455.43
2018-10-12T18:31:16.594Z,102457.20
2018-10-12T18:34:20.041Z,102455.34
2018-10-12T18:37:23.440Z,102458.38
2018-10-12T18:40:26.896Z,102457.50
2018-10-12T18:43:30.392Z,102454.86
2018-10-12T18:46:34.478Z,102456.72
2018-10-12T18:49:37.863Z,102462.03
2018-10-12T18:52:41.257Z,102461.07
2018-10-12T18:55:44.648Z,102461.32
2018-10-12T18:58:48.130Z,102465.65
2018-10-12T19:01:51.554Z,102465.62
2018-10-12T19:04:55.162Z,102469.15
2018-10-12T19:07:58.574Z,102475.30
2018-10-12T19:11:02.117Z,102472.52
2018-10-12T19:14:05.652Z,102473.73
2018-10-12T19:17:09.097Z,102473.67
2018-10-12T19:20:12.520Z,102470.56
2018-10-12T19:23:16.026Z,102476.77
2018-10-12T19:26:19.550Z,102476.47
2018-10-12T19:29:23.043Z,102480.71
2018-10-12T19:32:26.480Z,102479.87
2018-10-12T19:35:30.204Z,102483.51
2018-10-12T19:38:36.160Z,102487.00
2018-10-12T19:41:40.801Z,102490.54
2018-10-12T19:44:44.273Z,102494.56
2018-10-12T19:47:47.796Z,102496.13
2018-10-12T19:50:52.296Z,102494.82
2018-10-12T19:53:55.954Z,102505.94
2018-10-12T19:56:59.589Z,102506.23
2018-10-12T20:00:03.401Z,102504.25
2018-10-12T20:03:07.101Z,102505.07
2018-10-12T20:06:10.896Z,102506.21
2018-10-12T20:09:14.855Z,102506.27
2018-10-12T20:12:18.608Z,102503.66
2018-10-12T20:15:22.531Z,102512.53
2018-10-12T20:18:26.029Z,102515.21
2018-10-12T20:21:29.739Z,102515.77
2018-10-12T20:24:33.215Z,102520.27
2018-10-12T20:27:36.760Z,102515.13
2018-10-12T20:30:40.345Z,102522.84
2018-10-12T20:33:43.877Z,102528.69
2018-10-12T20:36:47.616Z,102523.87
2018-10-12T20:39:52.142Z,102523.01
2018-10-12T20:42:55.651Z,102532.72
2018-10-12T20:45:59.236Z,102529.28
2018-10-12T20:49:02.918Z,102530.51
2018-10-12T20:52:06.659Z,102529.96
2018-10-12T20:55:10.203Z,102529.15
2018-10-12T20:58:16.647Z,102529.78
2018-10-12T21:01:20.224Z,102523.66
2018-10-12T21:04:23.722Z,102520.10
2018-10-12T21:07:27.586Z,102515.52
2018-10-12T21:10:31.198Z,102518.92
2018-10-12T21:13:34.867Z,102519.01
2018-10-12T21:16:38.471Z,102516.26
2018-10-12T21:19:42.006Z,102520.10
2018-10-12T21:22:45.540Z,102517.16
2018-10-12T21:25:49.016Z,102518.04
2018-10-12T21:28:52.533Z,102518.76
2018-10-12T21:31:56.075Z,102514.35
2018-10-12T21:34:59.576Z,102516.30
2018-10-12T21:38:03.367Z,102520.28
2018-10-12T21:41:06.893Z,102520.67
2018-10-12T21:44:10.480Z,102516.62
2018-10-12T21:47:14.145Z,102517.49
2018-10-12T21:50:17.656Z,102514.98
2018-10-12T21:53:21.162Z,102520.35
2018-10-12T21:56:24.594Z,102512.60
2018-10-12T21:59:28.344Z,102508.86
2018-10-12T22:02:32.074Z,102509.56
2018-10-12T22:05:35.516Z,102505.94
2018-10-12T22:08:44.330Z,102500.00
2018-10-12T22:11:47.745Z,102504.33
2018-10-12T22:14:51.243Z,102502.45
2018-10-12T22:17:54.805Z,102497.63
2018-10-12T22:20:58.264Z,102493.93
2018-10-12T22:24:01.778Z,102494.10
2018-10-12T22:27:05.381Z,102491.16
2018-10-12T22:30:08.986Z,102491.34
2018-10-12T22:33:12.867Z,102485.92
2018-10-12T22:36:16.985Z,102479.17
2018-10-12T22:39:20.589Z,102472.69
2018-10-12T22:42:24.004Z,102473.33
2018-10-12T22:45:29.113Z,102472.42
2018-10-12T22:48:32.692Z,102466.62
2018-10-12T22:51:36.119Z,102463.00
2018-10-12T22:54:39.625Z,102465.56
2018-10-12T22:57:43.056Z,102461.13
2018-10-12T23:00:46.495Z,102459.96
2018-10-12T23:03:49.992Z,102456.55
2018-10-12T23:06:53.458Z,102458.75
2018-10-12T23:09:56.953Z,102460.77
2018-10-12T23:13:00.454Z,102456.62
2018-10-12T23:16:03.918Z,102461.67
2018-10-12T23:19:07.468Z,102454.91
2018-10-12T23:22:11.023Z,102456.30
2018-10-12T23:25:14.479Z,102453.82
2018-10-12T23:28:18.019Z,102448.06
2018-10-12T23:31:21.458Z,102452.54
2018-10-12T23:34:26.291Z,102450.24
2018-10-12T23:37:30.780Z,102450.30
2018-10-12T23:40:34.284Z,102458.42
2018-10-12T23:43:37.784Z,102455.95
2018-10-12T23:46:41.249Z,102460.45
2018-10-12T23:49:45.010Z,102460.37
2018-10-12T23:52:50.385Z,102462.01
2018-10-12T23:55:54.879Z,102466.47
2018-10-12T23:58:58.309Z,102464.48
